createdAt,value
2019-02-15T00:01:25.843Z,15.05
2019-02-15T00:03:53.765Z,16.97
2019-02-15T00:06:21.611Z,15.40
2019-02-15T00:08:49.273Z,16.07
2019-02-15T00:11:17.141Z,15.63
2019-02-15T00:13:44.852Z,16.12
2019-02-15T00:16:12.777Z,15.32
2019-02-15T00:18:59.989Z,14.83
2019-02-15T00:21:32.165Z,15.70
2019-02-15T00:24:00.039Z,15.40
2019-02-15T00:26:27.760Z,16.62
2019-02-15T00:28:55.462Z,15.88
2019-02-15T00:31:23.211Z,16.37
2019-02-15T00:33:50.903Z,16.37
2019-02-15T00:36:18.774Z,13.93
2019-02-15T00:38:46.554Z,15.43
2019-02-15T00:41:14.234Z,15.75
2019-02-15T00:43:41.992Z,16.07
2019-02-15T00:46:27.873Z,15.78
2019-02-15T00:48:57.892Z,16.23
2019-02-15T00:51:44.144Z,15.70
2019-02-15T00:54:35.724Z,15.60
2019-02-15T00:57:30.474Z,16.20
2019-02-15T01:00:09.311Z,15.78
2019-02-15T01:02:55.641Z,15.48
2019-02-15T01:05:42.945Z,15.15
2019-02-15T01:08:31.806Z,15.78
2019-02-15T01:11:12.354Z,14.53
2019-02-15T01:13:41.733Z,15.85
2019-02-15T01:16:09.409Z,15.40
2019-02-15T01:18:37.210Z,15.08
2019-02-15T01:21:05.182Z,15.70
2019-02-15T01:23:33.117Z,15.28
2019-02-15T01:26:10.747Z,16.48
2019-02-15T01:28:58.217Z,16.32
2019-02-15T01:31:47.688Z,15.15
2019-02-15T01:34:26.705Z,15.55
2019-02-15T01:37:08.016Z,16.70
2019-02-15T01:39:48.467Z,17.82
2019-02-15T01:42:25.256Z,17.55
2019-02-15T01:45:02.196Z,16.82
2019-02-15T01:47:35.743Z,16.67
2019-02-15T01:50:04.177Z,18.70
2019-02-15T01:52:33.293Z,15.90
2019-02-15T01:55:01.034Z,16.37
2019-02-15T01:57:29.987Z,17.50
2019-02-15T01:59:57.934Z,15.90
2019-02-15T02:02:27.954Z,15.90
2019-02-15T02:04:56.607Z,15.72
2019-02-15T02:07:24.275Z,16.00
2019-02-15T02:09:52.218Z,15.80
2019-02-15T02:12:20.070Z,15.30
2019-02-15T02:14:47.937Z,17.77
2019-02-15T02:17:15.929Z,14.60
2019-02-15T02:19:43.721Z,16.45
2019-02-15T02:22:11.573Z,15.65
2019-02-15T02:24:39.347Z,15.88
2019-02-15T02:27:07.109Z,15.43
2019-02-15T02:29:34.871Z,14.33
2019-02-15T02:32:02.729Z,13.83
2019-02-15T02:34:30.411Z,14.55
2019-02-15T02:36:58.136Z,15.20
2019-02-15T02:39:25.797Z,15.03
2019-02-15T02:41:53.548Z,14.98
2019-02-15T02:44:21.205Z,15.80
2019-02-15T02:46:49.102Z,16.10
2019-02-15T02:49:16.755Z,16.02
2019-02-15T02:51:44.381Z,15.88
2019-02-15T02:54:12.150Z,17.67
2019-02-15T02:56:39.868Z,16.85
2019-02-15T02:59:07.647Z,15.45
2019-02-15T03:01:35.412Z,16.10
2019-02-15T03:04:03.087Z,16.45
2019-02-15T03:06:30.830Z,15.30
2019-02-15T03:08:58.593Z,16.30
2019-02-15T03:11:26.348Z,16.70
2019-02-15T03:13:54.071Z,16.85
2019-02-15T03:16:21.847Z,18.85
2019-02-15T03:18:49.687Z,17.07
2019-02-15T03:21:19.341Z,17.45
2019-02-15T03:23:46.923Z,16.48
2019-02-15T03:26:14.592Z,16.50
2019-02-15T03:28:42.341Z,17.45
2019-02-15T03:31:10.029Z,16.87
2019-02-15T03:33:37.748Z,17.95
2019-02-15T03:36:05.815Z,17.70
2019-02-15T03:38:40.477Z,17.77
2019-02-15T03:41:25.476Z,17.25
2019-02-15T03:43:55.091Z,18.60
2019-02-15T03:46:22.966Z,18.82
2019-02-15T03:48:50.901Z,18.48
2019-02-15T03:51:18.475Z,20.97
2019-02-15T03:53:46.373Z,19.02
2019-02-15T03:56:14.205Z,18.42
2019-02-15T03:58:41.928Z,17.57
2019-02-15T04:01:09.794Z,18.20
2019-02-15T04:03:37.574Z,19.50
2019-02-15T04:06:05.430Z,17.75
2019-02-15T04:08:33.079Z,18.95
2019-02-15T04:11:00.997Z,17.95
2019-02-15T04:13:28.549Z,19.95
2019-02-15T04:15:56.310Z,18.92
2019-02-15T04:18:23.966Z,18.37
2019-02-15T04:20:51.817Z,21.05
2019-02-15T04:23:19.479Z,18.52
2019-02-15T04:25:47.201Z,19.25
2019-02-15T04:28:15.261Z,17.32
2019-02-15T04:30:43.110Z,19.77
2019-02-15T04:33:10.769Z,18.65
2019-02-15T04:35:38.547Z,18.80
2019-02-15T04:38:06.210Z,18.23
2019-02-15T04:40:34.064Z,19.60
2019-02-15T04:43:01.771Z,19.42
2019-02-15T04:45:29.525Z,19.95
2019-02-15T04:47:57.199Z,19.92
2019-02-15T04:50:24.868Z,19.00
2019-02-15T04:52:52.598Z,19.37
2019-02-15T04:55:20.383Z,18.62
2019-02-15T04:57:48.036Z,20.37
2019-02-15T05:00:15.711Z,19.52
2019-02-15T05:02:43.471Z,18.48
2019-02-15T05:05:11.060Z,19.65
2019-02-15T05:07:38.806Z,19.87
2019-02-15T05:10:06.511Z,19.65
2019-02-15T05:12:34.337Z,20.68
2019-02-15T05:15:02.102Z,20.15
2019-02-15T05:17:31.495Z,20.48
2019-02-15T05:19:59.314Z,20.77
2019-02-15T05:22:27.242Z,21.17
2019-02-15T05:24:54.931Z,20.88
2019-02-15T05:27:22.770Z,20.92
2019-02-15T05:29:50.447Z,20.25
2019-02-15T05:32:18.089Z,21.33
2019-02-15T05:34:45.863Z,21.27
2019-02-15T05:37:13.706Z,19.73
2019-02-15T05:39:41.530Z,20.82
2019-02-15T05:42:09.190Z,20.10
2019-02-15T05:44:37.026Z,19.95
2019-02-15T05:47:04.786Z,19.80
2019-02-15T05:49:32.518Z,20.82
2019-02-15T05:52:00.223Z,19.82
2019-02-15T05:54:28.097Z,18.17
2019-02-15T05:56:55.769Z,17.12
2019-02-15T05:59:23.515Z,17.92
2019-02-15T06:01:51.207Z,17.37
2019-02-15T06:04:19.075Z,16.97
2019-02-15T06:06:46.876Z,18.75
2019-02-15T06:09:14.759Z,17.80
2019-02-15T06:11:42.611Z,16.90
2019-02-15T06:14:10.488Z,18.95
2019-02-15T06:16:38.271Z,19.57
2019-02-15T06:19:06.040Z,16.62
2019-02-15T06:21:33.712Z,18.15
2019-02-15T06:24:02.336Z,18.52
2019-02-15T06:26:30.126Z,18.45
2019-02-15T06:28:57.872Z,17.15
2019-02-15T06:31:25.701Z,18.05
2019-02-15T06:33:53.502Z,17.02
2019-02-15T06:36:21.391Z,16.70
2019-02-15T06:38:49.364Z,15.90
2019-02-15T06:41:17.135Z,16.77
2019-02-15T06:43:44.821Z,19.15
2019-02-15T06:46:12.646Z,19.73
2019-02-15T06:48:40.314Z,21.07
2019-02-15T06:51:08.083Z,20.30
2019-02-15T06:53:35.759Z,18.67
2019-02-15T06:56:03.481Z,18.37
2019-02-15T06:58:31.869Z,19.12
2019-02-15T07:01:17.918Z,17.60
2019-02-15T07:04:18.995Z,15.55
2019-02-15T07:06:48.354Z,17.77
2019-02-15T07:09:16.039Z,17.95
2019-02-15T07:11:43.870Z,17.52
2019-02-15T07:14:11.569Z,18.85
2019-02-15T07:19:13.382Z,19.85
2019-02-15T07:21:42.157Z,18.90
2019-02-15T07:24:09.881Z,17.48
2019-02-15T07:26:37.718Z,17.30
2019-02-15T07:29:05.470Z,17.60
2019-02-15T07:31:33.135Z,18.30
2019-02-15T07:34:00.815Z,17.45
2019-02-15T07:36:28.497Z,17.42
2019-02-15T07:38:56.311Z,18.50
2019-02-15T07:41:24.497Z,19.20
2019-02-15T07:43:52.518Z,19.05
2019-02-15T07:46:20.218Z,18.40
2019-02-15T07:48:48.098Z,17.37
2019-02-15T07:51:15.825Z,17.32
2019-02-15T07:53:43.587Z,17.90
2019-02-15T07:56:11.281Z,19.90
2019-02-15T07:58:39.126Z,18.60
2019-02-15T08:01:06.848Z,20.27
2019-02-15T08:03:34.719Z,20.15
2019-02-15T08:06:02.495Z,21.80
2019-02-15T08:08:30.246Z,21.68
2019-02-15T08:10:58.010Z,23.30
2019-02-15T08:13:25.789Z,22.62
2019-02-15T08:15:53.528Z,20.23
2019-02-15T08:18:21.366Z,21.27
2019-02-15T08:20:49.132Z,22.52
2019-02-15T08:23:17.026Z,20.40
2019-02-15T08:25:44.716Z,21.25
2019-02-15T08:28:12.473Z,20.77
2019-02-15T08:30:40.180Z,21.50
2019-02-15T08:33:07.956Z,21.27
2019-02-15T08:35:36.056Z,22.15
2019-02-15T08:38:03.819Z,21.23
2019-02-15T08:40:31.775Z,22.52
2019-02-15T08:42:59.589Z,20.97
2019-02-15T08:45:27.346Z,19.00
2019-02-15T08:47:55.011Z,18.98
2019-02-15T08:50:22.810Z,18.70
2019-02-15T08:52:50.607Z,19.17
2019-02-15T08:55:18.532Z,18.25
2019-02-15T08:57:46.456Z,17.67
2019-02-15T09:00:14.423Z,17.27
2019-02-15T09:02:42.213Z,19.67
2019-02-15T09:05:10.441Z,18.10
2019-02-15T09:07:38.362Z,17.17
2019-02-15T09:10:07.873Z,17.90
2019-02-15T09:12:37.289Z,17.40
2019-02-15T09:15:07.776Z,17.23
2019-02-15T09:17:37.184Z,17.35
2019-02-15T09:20:06.595Z,18.48
2019-02-15T09:22:36.024Z,15.85
2019-02-15T09:25:04.138Z,17.05
2019-02-15T09:27:53.010Z,15.28
2019-02-15T09:30:22.309Z,17.12
2019-02-15T09:32:50.046Z,15.85
2019-02-15T09:35:17.831Z,15.65
2019-02-15T09:37:45.592Z,15.55
2019-02-15T09:40:13.398Z,14.83
2019-02-15T09:42:41.171Z,14.50
2019-02-15T09:45:10.251Z,13.55
2019-02-15T09:47:38.210Z,13.22
2019-02-15T09:50:07.589Z,15.18
2019-02-15T09:52:36.308Z,14.68
2019-02-15T09:55:04.029Z,15.40
2019-02-15T09:57:31.800Z,13.00
2019-02-15T09:59:59.578Z,14.15
2019-02-15T10:02:27.366Z,14.75
2019-02-15T10:04:55.062Z,13.78
2019-02-15T10:07:22.877Z,14.58
2019-02-15T10:09:50.530Z,14.23
2019-02-15T10:12:18.405Z,14.30
2019-02-15T10:14:46.123Z,13.98
2019-02-15T10:17:13.816Z,14.45
2019-02-15T10:19:41.574Z,14.40
2019-02-15T10:22:09.244Z,14.40
2019-02-15T10:24:37.005Z,13.62
2019-02-15T10:27:04.674Z,14.50
2019-02-15T10:29:32.440Z,15.30
2019-02-15T10:32:00.153Z,14.50
2019-02-15T10:34:28.025Z,14.68
2019-02-15T10:36:55.688Z,14.85
2019-02-15T10:39:23.512Z,13.35
2019-02-15T10:41:51.219Z,11.10
2019-02-15T10:44:19.039Z,10.23
2019-02-15T10:46:46.826Z,10.53
2019-02-15T10:49:14.709Z,10.43
2019-02-15T10:51:42.793Z,11.05
2019-02-15T10:54:10.541Z,11.93
2019-02-15T10:56:41.382Z,10.35
2019-02-15T10:59:11.117Z,9.40
2019-02-15T11:01:38.695Z,8.75
2019-02-15T11:04:06.418Z,9.75
2019-02-15T11:06:34.411Z,10.20
2019-02-15T11:09:02.194Z,9.83
2019-02-15T11:11:31.620Z,8.65
2019-02-15T11:13:59.327Z,8.50
2019-02-15T11:16:27.096Z,7.58
2019-02-15T11:18:54.698Z,9.38
2019-02-15T11:21:22.480Z,8.70
2019-02-15T11:23:50.171Z,9.35
2019-02-15T11:26:24.541Z,7.65
2019-02-15T11:28:47.410Z,7.45
2019-02-15T11:31:16.943Z,8.95
2019-02-15T11:33:44.750Z,9.38
2019-02-15T11:36:12.526Z,9.75
2019-02-15T11:38:40.200Z,9.55
2019-02-15T11:41:11.195Z,8.55
2019-02-15T11:43:37.563Z,8.05
2019-02-15T11:46:05.305Z,8.73
2019-02-15T11:48:33.020Z,7.60
2019-02-15T11:51:02.002Z,7.60
2019-02-15T11:53:29.767Z,7.60
2019-02-15T11:55:57.479Z,7.72
2019-02-15T11:58:25.253Z,8.25
2019-02-15T12:00:52.923Z,8.70
2019-02-15T12:03:20.613Z,8.35
2019-02-15T12:05:48.210Z,9.33
2019-02-15T12:08:16.071Z,9.73
2019-02-15T12:10:43.813Z,7.70
2019-02-15T12:13:11.854Z,7.85
2019-02-15T12:15:39.507Z,6.87
2019-02-15T12:18:07.309Z,7.08
2019-02-15T12:20:35.024Z,6.97
2019-02-15T12:23:02.817Z,7.37
2019-02-15T12:25:30.494Z,9.83
2019-02-15T12:27:58.456Z,6.80
2019-02-15T12:30:26.169Z,7.47
2019-02-15T12:32:53.873Z,6.78
2019-02-15T12:35:21.594Z,6.22
2019-02-15T12:37:49.410Z,5.78
2019-02-15T12:40:17.143Z,4.90
2019-02-15T12:42:44.888Z,5.75
2019-02-15T12:45:12.885Z,6.53
2019-02-15T12:47:41.558Z,5.28
2019-02-15T12:50:11.041Z,5.62
2019-02-15T12:52:40.431Z,6.03
2019-02-15T12:55:08.118Z,5.83
2019-02-15T12:57:36.027Z,6.20
2019-02-15T13:00:05.431Z,6.95
2019-02-15T13:02:34.742Z,6.55
2019-02-15T13:05:02.590Z,5.95
2019-02-15T13:07:31.875Z,5.62
2019-02-15T13:09:59.676Z,5.15
2019-02-15T13:12:27.538Z,3.67
2019-02-15T13:14:55.417Z,3.10
2019-02-15T13:17:24.978Z,2.52
2019-02-15T13:19:53.213Z,2.70
2019-02-15T13:22:20.886Z,2.47
2019-02-15T13:24:48.674Z,3.08
2019-02-15T13:27:16.356Z,2.75
2019-02-15T13:29:44.316Z,2.75
2019-02-15T13:32:12.127Z,2.98
2019-02-15T13:34:39.958Z,4.60
2019-02-15T13:37:07.701Z,4.25
2019-02-15T13:39:35.705Z,3.90
2019-02-15T13:42:03.663Z,2.80
2019-02-15T13:44:31.524Z,2.70
2019-02-15T13:46:59.321Z,2.70
2019-02-15T13:49:27.330Z,2.62
2019-02-15T13:51:55.205Z,3.65
2019-02-15T13:54:22.879Z,3.10
2019-02-15T13:56:50.627Z,3.02
2019-02-15T13:59:18.340Z,5.92
2019-02-15T14:01:46.106Z,3.20
2019-02-15T14:04:13.801Z,3.27
2019-02-15T14:06:41.659Z,2.95
2019-02-15T14:09:10.966Z,2.50
2019-02-15T14:11:39.070Z,3.00
2019-02-15T14:14:06.788Z,3.10
2019-02-15T14:16:34.720Z,3.35
2019-02-15T14:19:02.451Z,3.77
2019-02-15T14:21:30.150Z,2.60
2019-02-15T14:23:57.839Z,3.42
2019-02-15T14:26:25.845Z,2.60
2019-02-15T14:28:53.616Z,2.67
2019-02-15T14:31:21.451Z,2.12
2019-02-15T14:33:49.204Z,2.67
2019-02-15T14:36:17.023Z,2.83
2019-02-15T14:38:45.003Z,2.10
2019-02-15T14:41:12.909Z,2.65
2019-02-15T14:43:40.877Z,2.80
2019-02-15T14:46:09.014Z,2.30
2019-02-15T14:48:36.913Z,2.95
2019-02-15T14:51:04.825Z,2.77
2019-02-15T14:53:32.706Z,3.10
2019-02-15T14:56:00.523Z,2.90
2019-02-15T14:58:28.441Z,2.85
2019-02-15T15:00:56.155Z,3.00
2019-02-15T15:03:24.044Z,4.42
2019-02-15T15:05:51.938Z,6.70
2019-02-15T15:08:19.632Z,5.40
2019-02-15T15:10:47.634Z,3.87
2019-02-15T15:13:15.386Z,2.42
2019-02-15T15:15:43.139Z,2.12
2019-02-15T15:18:13.500Z,1.90
2019-02-15T15:20:40.709Z,2.50
2019-02-15T15:23:08.505Z,2.17
2019-02-15T15:25:36.388Z,2.22
2019-02-15T15:28:04.088Z,2.30
2019-02-15T15:30:31.990Z,2.75
2019-02-15T15:32:59.777Z,3.50
2019-02-15T15:35:27.582Z,3.10
2019-02-15T15:37:55.156Z,2.87
2019-02-15T15:40:23.040Z,2.30
2019-02-15T15:42:50.832Z,2.60
2019-02-15T15:45:18.741Z,3.42
2019-02-15T15:47:46.513Z,2.90
2019-02-15T15:50:14.321Z,3.27
2019-02-15T15:52:42.271Z,4.25
2019-02-15T15:55:10.367Z,4.55
2019-02-15T15:57:39.052Z,5.62
2019-02-15T16:00:08.520Z,3.92
2019-02-15T16:02:37.809Z,2.62
2019-02-15T16:05:06.295Z,2.50
2019-02-15T16:07:34.587Z,2.85
2019-02-15T16:10:02.758Z,3.15
2019-02-15T16:12:32.220Z,3.30
2019-02-15T16:14:59.915Z,2.50
2019-02-15T16:17:29.203Z,2.98
2019-02-15T16:19:57.002Z,3.40
2019-02-15T16:22:26.091Z,3.47
2019-02-15T16:24:54.092Z,2.98
2019-02-15T16:27:21.874Z,3.27
2019-02-15T16:29:49.698Z,3.65
2019-02-15T16:32:17.718Z,3.60
2019-02-15T16:34:45.484Z,3.92
2019-02-15T16:37:13.267Z,3.60
2019-02-15T16:39:41.026Z,3.77
2019-02-15T16:42:09.053Z,4.53
2019-02-15T16:44:36.856Z,4.22
2019-02-15T16:47:04.673Z,4.17
2019-02-15T16:49:32.575Z,4.25
2019-02-15T16:52:00.281Z,4.95
2019-02-15T16:54:28.299Z,4.15
2019-02-15T16:56:56.173Z,4.00
2019-02-15T16:59:23.913Z,5.45
2019-02-15T17:01:51.859Z,5.47
2019-02-15T17:04:19.931Z,4.97
2019-02-15T17:06:47.835Z,4.37
2019-02-15T17:09:16.770Z,4.20
2019-02-15T17:11:44.863Z,5.22
2019-02-15T17:14:12.899Z,5.20
2019-02-15T17:16:40.811Z,4.95
2019-02-15T17:19:08.674Z,5.37
2019-02-15T17:21:36.618Z,5.35
2019-02-15T17:24:04.434Z,4.37
2019-02-15T17:26:32.233Z,4.60
2019-02-15T17:29:00.130Z,4.95
2019-02-15T17:31:28.035Z,5.35
2019-02-15T17:33:55.841Z,5.35
2019-02-15T17:36:23.729Z,5.28
2019-02-15T17:38:51.617Z,5.65
2019-02-15T17:41:19.570Z,5.17
2019-02-15T17:43:47.593Z,4.75
2019-02-15T17:46:15.283Z,5.17
2019-02-15T17:48:43.201Z,4.90
2019-02-15T17:51:10.892Z,5.70
2019-02-15T17:53:38.699Z,5.00
2019-02-15T17:56:06.554Z,6.00
2019-02-15T17:58:34.398Z,5.97
2019-02-15T18:01:02.187Z,5.95
2019-02-15T18:03:30.109Z,5.70
2019-02-15T18:05:57.905Z,6.28
2019-02-15T18:08:25.627Z,6.20
2019-02-15T18:10:53.417Z,5.80
2019-02-15T18:13:21.246Z,6.92
2019-02-15T18:15:49.259Z,6.72
2019-02-15T18:18:17.020Z,6.60
2019-02-15T18:20:44.804Z,6.08
2019-02-15T18:23:12.542Z,7.53
2019-02-15T18:25:40.385Z,6.65
2019-02-15T18:28:08.265Z,7.03
2019-02-15T18:30:36.079Z,6.60
2019-02-15T18:33:03.869Z,6.20
2019-02-15T18:35:31.659Z,6.83
2019-02-15T18:37:59.389Z,6.62
2019-02-15T18:40:27.410Z,7.37
2019-02-15T18:42:55.100Z,9.13
2019-02-15T18:45:23.089Z,7.12
2019-02-15T18:47:51.010Z,8.38
2019-02-15T18:50:18.847Z,8.00
2019-02-15T18:52:46.642Z,7.00
2019-02-15T18:55:14.322Z,7.03
2019-02-15T18:57:42.170Z,9.33
2019-02-15T19:00:12.650Z,7.87
2019-02-15T19:02:42.171Z,8.00
2019-02-15T19:05:12.073Z,8.00
2019-02-15T19:07:39.963Z,7.90
2019-02-15T19:10:09.460Z,7.83
2019-02-15T19:12:38.953Z,7.92
2019-02-15T19:15:07.745Z,8.68
2019-02-15T19:17:37.115Z,9.08
2019-02-15T19:20:05.529Z,8.63
2019-02-15T19:22:34.971Z,8.58
2019-02-15T19:25:02.743Z,9.58
2019-02-15T19:27:32.169Z,8.53
2019-02-15T19:30:00.470Z,9.23
2019-02-15T19:32:29.005Z,8.95
2019-02-15T19:34:56.900Z,9.08
2019-02-15T19:37:24.746Z,8.95
2019-02-15T19:39:52.539Z,9.28
2019-02-15T19:42:21.442Z,10.30
2019-02-15T19:44:49.412Z,8.40
2019-02-15T19:47:17.382Z,10.40
2019-02-15T19:49:45.380Z,9.33
2019-02-15T19:52:13.126Z,8.70
2019-02-15T19:54:40.957Z,9.00
2019-02-15T19:57:08.904Z,7.87
2019-02-15T19:59:36.790Z,8.90
2019-02-15T20:02:04.765Z,8.70
2019-02-15T20:04:32.761Z,9.00
2019-02-15T20:07:02.932Z,8.50
2019-02-15T20:09:31.142Z,9.15
2019-02-15T20:11:58.942Z,9.60
2019-02-15T20:14:26.745Z,10.48
2019-02-15T20:16:54.494Z,11.45
2019-02-15T20:19:22.484Z,11.55
2019-02-15T20:21:50.518Z,11.83
2019-02-15T20:24:18.338Z,11.05
2019-02-15T20:26:46.335Z,11.30
2019-02-15T20:29:14.148Z,11.65
2019-02-15T20:31:42.146Z,10.63
2019-02-15T20:34:09.867Z,10.70
2019-02-15T20:36:37.764Z,11.35
2019-02-15T20:39:05.792Z,10.90
2019-02-15T20:41:33.696Z,10.40
2019-02-15T20:44:01.504Z,11.12
2019-02-15T20:46:29.190Z,10.30
2019-02-15T20:49:04.241Z,11.83
2019-02-15T20:51:26.754Z,11.73
2019-02-15T20:53:54.582Z,10.82
2019-02-15T20:56:22.513Z,11.35
2019-02-15T20:58:50.399Z,10.70
2019-02-15T21:01:18.301Z,11.12
2019-02-15T21:03:46.018Z,10.35
2019-02-15T21:06:14.705Z,10.35
2019-02-15T21:08:42.625Z,9.83
2019-02-15T21:11:10.448Z,10.55
2019-02-15T21:13:38.488Z,9.38
2019-02-15T21:16:06.426Z,9.13
2019-02-15T21:18:34.348Z,10.50
2019-02-15T21:21:02.113Z,9.65
2019-02-15T21:23:29.924Z,9.85
2019-02-15T21:25:57.754Z,9.80
2019-02-15T21:28:25.586Z,10.60
2019-02-15T21:30:53.306Z,10.82
2019-02-15T21:33:21.191Z,9.80
2019-02-15T21:35:49.106Z,11.85
2019-02-15T21:38:16.962Z,10.85
2019-02-15T21:40:44.878Z,10.75
2019-02-15T21:43:12.703Z,9.50
2019-02-15T21:45:40.522Z,10.50
2019-02-15T21:48:08.539Z,10.95
2019-02-15T21:50:36.417Z,11.08
2019-02-15T21:53:04.364Z,11.90
2019-02-15T21:55:32.249Z,10.70
2019-02-15T21:58:01.682Z,9.98
2019-02-15T22:00:29.730Z,10.65
2019-02-15T22:02:57.634Z,10.48
2019-02-15T22:05:25.410Z,10.93
2019-02-15T22:07:53.210Z,11.22
2019-02-15T22:10:21.007Z,10.40
2019-02-15T22:12:48.923Z,10.30
2019-02-15T22:15:16.641Z,9.85
2019-02-15T22:17:44.666Z,11.05
2019-02-15T22:20:12.604Z,8.90
2019-02-15T22:22:41.388Z,9.93
2019-02-15T22:25:09.076Z,11.33
2019-02-15T22:27:36.934Z,10.50
2019-02-15T22:30:06.182Z,10.55
2019-02-15T22:32:35.613Z,10.35
2019-02-15T22:35:03.536Z,10.35
2019-02-15T22:37:32.642Z,11.10
2019-02-15T22:40:28.803Z,11.25
2019-02-15T22:43:01.170Z,10.90
2019-02-15T22:45:30.469Z,11.35
2019-02-15T22:47:58.311Z,11.80
2019-02-15T22:50:35.307Z,12.35
2019-02-15T22:52:55.975Z,12.30
2019-02-15T22:55:23.737Z,13.43
2019-02-15T22:57:51.602Z,12.50
2019-02-15T23:00:31.544Z,12.07
2019-02-15T23:03:00.922Z,12.15
2019-02-15T23:05:28.619Z,11.90
2019-02-15T23:07:56.524Z,11.40
2019-02-15T23:10:24.421Z,11.78
2019-02-15T23:12:52.468Z,11.15
2019-02-15T23:15:20.265Z,11.75
2019-02-15T23:17:48.149Z,12.60
2019-02-15T23:20:16.044Z,12.35
2019-02-15T23:22:44.042Z,12.10
2019-02-15T23:25:11.839Z,13.43
2019-02-15T23:27:39.654Z,11.85
2019-02-15T23:30:07.661Z,12.13
2019-02-15T23:32:35.532Z,12.95
2019-02-15T23:35:03.313Z,12.13
2019-02-15T23:37:31.126Z,11.53
2019-02-15T23:39:59.101Z,11.68
2019-02-15T23:42:26.906Z,11.80
2019-02-15T23:44:54.670Z,11.40
2019-02-15T23:47:22.377Z,11.78
2019-02-15T23:49:50.251Z,11.35
2019-02-15T23:52:17.969Z,12.47
2019-02-15T23:54:45.715Z,11.30
2019-02-15T23:57:13.421Z,11.53
2019-02-15T23:59:41.189Z,13.32
